createdAt,value
2023-09-28T00:00:18.377Z,8.90
2023-09-28T00:02:46.230Z,9.47
2023-09-28T00:05:14.711Z,9.07
2023-09-28T00:07:41.615Z,9.50
2023-09-28T00:10:09.577Z,9.87
2023-09-28T00:12:36.054Z,10.40
2023-09-28T00:15:05.153Z,9.50
2023-09-28T00:17:33.425Z,9.13
2023-09-28T00:20:01.033Z,8.70
2023-09-28T00:22:27.845Z,8.83
2023-09-28T00:24:55.247Z,8.70
2023-09-28T00:27:21.668Z,8.33
2023-09-28T00:29:51.230Z,7.53
2023-09-28T00:32:20.190Z,7.90
2023-09-28T00:34:46.667Z,8.60
2023-09-28T00:37:14.535Z,7.97
2023-09-28T00:39:41.033Z,9.10
2023-09-28T00:42:08.493Z,7.60
2023-09-28T00:44:34.917Z,8.70
2023-09-28T00:47:03.573Z,9.10
2023-09-28T00:49:31.534Z,9.10
2023-09-28T00:52:00.568Z,8.73
2023-09-28T00:54:28.664Z,9.20
2023-09-28T00:56:56.160Z,8.13
2023-09-28T00:59:22.652Z,9.13
2023-09-28T01:01:51.295Z,9.10
2023-09-28T01:04:17.779Z,8.97
2023-09-28T01:06:46.631Z,8.77
2023-09-28T01:09:13.111Z,9.80
2023-09-28T01:11:42.143Z,9.40
2023-09-28T01:14:08.870Z,9.10
2023-09-28T01:16:38.020Z,9.20
2023-09-28T01:19:04.669Z,9.07
2023-09-28T01:21:32.349Z,9.57
2023-09-28T01:24:00.210Z,9.60
2023-09-28T01:26:31.872Z,9.60
2023-09-28T01:28:58.851Z,9.67
2023-09-28T01:31:28.327Z,9.73
2023-09-28T01:33:55.469Z,9.50
2023-09-28T01:36:23.060Z,9.83
2023-09-28T01:38:51.281Z,9.97
2023-09-28T01:41:20.111Z,10.13
2023-09-28T01:43:49.351Z,10.37
2023-09-28T01:46:16.884Z,9.80
2023-09-28T01:48:43.412Z,9.83
2023-09-28T01:51:10.867Z,9.93
2023-09-28T01:53:37.298Z,9.60
2023-09-28T01:56:06.044Z,8.90
2023-09-28T01:58:34.138Z,8.77
2023-09-28T02:01:01.795Z,9.70
2023-09-28T02:03:29.066Z,8.80
2023-09-28T02:05:57.374Z,8.50
2023-09-28T02:08:23.844Z,9.00
2023-09-28T02:10:51.266Z,9.33
2023-09-28T02:13:17.761Z,8.50
2023-09-28T02:15:46.484Z,9.10
2023-09-28T02:18:14.827Z,8.80
2023-09-28T02:20:43.720Z,8.83
2023-09-28T02:23:10.436Z,9.10
2023-09-28T02:25:38.871Z,9.57
2023-09-28T02:28:05.604Z,9.87
2023-09-28T02:30:33.115Z,9.20
2023-09-28T02:33:03.804Z,8.93
2023-09-28T02:35:31.752Z,9.27
2023-09-28T02:37:58.753Z,9.07
2023-09-28T02:40:26.395Z,8.97
2023-09-28T02:42:53.207Z,9.17
2023-09-28T02:45:20.925Z,9.00
2023-09-28T02:47:48.767Z,9.37
2023-09-28T02:50:19.697Z,8.50
2023-09-28T02:52:48.011Z,8.87
2023-09-28T02:55:18.800Z,9.80
2023-09-28T02:57:45.294Z,9.20
2023-09-28T03:00:20.200Z,8.53
2023-09-28T03:02:50.750Z,9.10
2023-09-28T03:05:22.287Z,9.00
2023-09-28T03:07:49.493Z,9.60
2023-09-28T03:10:20.379Z,7.70
2023-09-28T03:12:48.210Z,8.87
2023-09-28T03:15:18.018Z,8.10
2023-09-28T03:17:44.994Z,8.00
2023-09-28T03:20:15.666Z,8.17
2023-09-28T03:22:44.951Z,8.77
2023-09-28T03:25:17.524Z,8.27
2023-09-28T03:27:44.795Z,8.70
2023-09-28T03:30:12.736Z,8.53
2023-09-28T03:32:39.347Z,8.13
2023-09-28T03:35:07.952Z,8.23
2023-09-28T03:37:35.459Z,9.03
2023-09-28T03:40:11.062Z,8.77
2023-09-28T03:42:39.305Z,9.67
2023-09-28T03:45:09.647Z,10.50
2023-09-28T03:47:37.324Z,9.57
2023-09-28T03:50:05.937Z,9.53
2023-09-28T03:52:35.195Z,9.77
2023-09-28T03:55:04.800Z,9.67
2023-09-28T03:57:32.214Z,10.37
2023-09-28T03:59:59.602Z,9.73
2023-09-28T04:02:28.061Z,10.80
2023-09-28T04:04:55.631Z,9.50
2023-09-28T04:07:23.184Z,9.47
2023-09-28T04:09:50.823Z,9.37
2023-09-28T04:12:20.092Z,9.17
2023-09-28T04:14:47.509Z,8.77
2023-09-28T04:17:17.137Z,9.40
2023-09-28T04:19:44.926Z,9.33
2023-09-28T04:22:12.381Z,9.70
2023-09-28T04:24:39.908Z,9.17
2023-09-28T04:27:09.194Z,9.40
2023-09-28T04:29:38.025Z,9.47
2023-09-28T04:32:05.679Z,9.03
2023-09-28T04:34:33.221Z,10.33
2023-09-28T04:37:00.781Z,9.07
2023-09-28T04:39:28.432Z,8.33
2023-09-28T04:41:55.905Z,9.47
2023-09-28T04:44:24.440Z,9.20
2023-09-28T04:46:53.344Z,9.37
2023-09-28T04:49:21.166Z,8.93
2023-09-28T04:51:48.608Z,9.20
2023-09-28T04:54:16.723Z,9.90
2023-09-28T04:56:44.208Z,9.47
2023-09-28T04:59:11.867Z,9.60
2023-09-28T05:01:39.364Z,9.30
2023-09-28T05:04:12.067Z,9.20
2023-09-28T05:06:40.049Z,9.50
2023-09-28T05:09:08.365Z,11.07
2023-09-28T05:11:35.813Z,9.57
2023-09-28T05:14:03.344Z,10.57
2023-09-28T05:16:30.878Z,9.77
2023-09-28T05:18:58.419Z,9.70
2023-09-28T05:21:27.861Z,9.50
2023-09-28T05:23:55.423Z,9.17
2023-09-28T05:26:23.086Z,9.57
2023-09-28T05:28:50.686Z,9.07
2023-09-28T05:31:18.168Z,9.63
2023-09-28T05:33:46.133Z,9.13
2023-09-28T05:36:13.592Z,9.97
2023-09-28T05:38:42.842Z,9.97
2023-09-28T05:41:10.504Z,9.83
2023-09-28T05:43:38.024Z,9.50
2023-09-28T05:46:05.582Z,9.30
2023-09-28T05:48:33.130Z,10.70
2023-09-28T05:51:00.599Z,9.97
2023-09-28T05:53:28.815Z,10.00
2023-09-28T05:55:57.681Z,9.67
2023-09-28T05:58:25.567Z,10.30
2023-09-28T06:00:53.033Z,11.87
2023-09-28T06:03:20.576Z,9.57
2023-09-28T06:05:48.461Z,9.30
2023-09-28T06:08:15.971Z,10.10
2023-09-28T06:10:46.684Z,10.20
2023-09-28T06:13:16.842Z,9.13
2023-09-28T06:15:44.423Z,11.23
2023-09-28T06:18:11.966Z,10.40
2023-09-28T06:20:41.445Z,9.70
2023-09-28T06:23:10.261Z,9.63
2023-09-28T06:25:37.775Z,11.43
2023-09-28T06:28:05.605Z,10.27
2023-09-28T06:30:34.676Z,10.83
2023-09-28T06:33:02.201Z,14.67
2023-09-28T06:35:29.777Z,10.20
2023-09-28T06:37:57.936Z,10.93
2023-09-28T06:40:25.383Z,10.67
2023-09-28T06:42:52.842Z,10.27
2023-09-28T06:45:20.427Z,11.07
2023-09-28T06:47:56.956Z,8.80
2023-09-28T06:50:27.469Z,9.53
2023-09-28T06:52:55.092Z,9.23
2023-09-28T06:55:23.450Z,9.93
2023-09-28T06:57:50.963Z,10.30
2023-09-28T07:00:18.894Z,9.67
2023-09-28T07:02:48.304Z,11.60
2023-09-28T07:05:17.767Z,11.80
2023-09-28T07:07:46.248Z,11.23
2023-09-28T07:10:14.413Z,11.83
2023-09-28T07:12:42.419Z,12.63
2023-09-28T07:15:10.302Z,11.87
2023-09-28T07:17:38.154Z,12.80
2023-09-28T07:20:06.378Z,12.67
2023-09-28T07:22:35.231Z,12.33
2023-09-28T07:25:02.982Z,13.33
2023-09-28T07:27:33.485Z,12.93
2023-09-28T07:30:00.932Z,13.90
2023-09-28T07:32:30.337Z,13.17
2023-09-28T07:34:59.012Z,12.53
2023-09-28T07:37:26.524Z,11.90
2023-09-28T07:39:55.586Z,12.10
2023-09-28T07:42:23.726Z,11.67
2023-09-28T07:44:52.347Z,12.20
2023-09-28T07:47:20.483Z,11.40
2023-09-28T07:49:48.013Z,11.23
2023-09-28T07:52:16.267Z,12.40
2023-09-28T07:54:44.773Z,15.97
2023-09-28T07:57:13.557Z,16.27
2023-09-28T07:59:41.214Z,16.87
2023-09-28T08:02:10.750Z,16.07
2023-09-28T08:04:38.446Z,17.37
2023-09-28T08:07:05.904Z,15.07
2023-09-28T08:09:33.694Z,15.10
2023-09-28T08:12:03.539Z,16.53
2023-09-28T08:14:32.551Z,16.97
2023-09-28T08:17:00.072Z,16.43
2023-09-28T08:19:28.741Z,16.53
2023-09-28T08:21:56.516Z,16.07
2023-09-28T08:24:24.012Z,15.60
2023-09-28T08:26:51.951Z,15.60
2023-09-28T08:29:19.851Z,16.57
2023-09-28T08:31:48.821Z,15.70
2023-09-28T08:34:28.804Z,15.60
2023-09-28T08:37:04.336Z,15.03
2023-09-28T08:39:32.139Z,13.77
2023-09-28T08:42:02.594Z,13.30
2023-09-28T08:44:32.259Z,13.50
2023-09-28T08:47:01.992Z,12.50
2023-09-28T08:49:32.236Z,11.73
2023-09-28T08:52:00.208Z,12.40
2023-09-28T08:54:29.254Z,12.43
2023-09-28T08:56:58.343Z,14.47
2023-09-28T08:59:29.971Z,11.97
2023-09-28T09:01:58.773Z,11.47
2023-09-28T09:04:30.418Z,10.70
2023-09-28T09:06:58.454Z,11.27
2023-09-28T09:09:25.918Z,9.87
2023-09-28T09:11:53.985Z,10.13
2023-09-28T09:14:21.926Z,9.97
2023-09-28T09:16:50.288Z,9.87
2023-09-28T09:19:17.717Z,10.90
2023-09-28T09:21:46.569Z,11.47
2023-09-28T09:24:15.206Z,9.87
2023-09-28T09:26:43.860Z,10.40
2023-09-28T09:29:11.717Z,11.13
2023-09-28T09:31:40.917Z,12.23
2023-09-28T09:34:12.514Z,12.80
2023-09-28T09:36:40.332Z,13.60
2023-09-28T09:39:09.891Z,14.90
2023-09-28T09:41:47.008Z,15.60
2023-09-28T09:44:18.146Z,16.13
2023-09-28T09:46:45.695Z,11.97
2023-09-28T09:49:13.888Z,13.27
2023-09-28T09:51:41.375Z,11.67
2023-09-28T09:54:12.663Z,13.97
2023-09-28T09:56:41.647Z,11.03
2023-09-28T09:59:09.315Z,11.67
2023-09-28T10:01:44.367Z,12.13
2023-09-28T10:04:13.928Z,10.47
2023-09-28T10:06:43.770Z,8.97
2023-09-28T10:09:14.326Z,10.10
2023-09-28T10:11:41.856Z,9.73
2023-09-28T10:14:09.742Z,10.20
2023-09-28T10:16:37.855Z,8.20
2023-09-28T10:19:07.257Z,11.10
2023-09-28T10:21:36.547Z,11.40
2023-09-28T10:24:12.551Z,10.73
2023-09-28T10:26:44.258Z,8.93
2023-09-28T10:29:14.199Z,8.90
2023-09-28T10:31:56.708Z,9.03
2023-09-28T10:34:27.781Z,9.77
2023-09-28T10:37:19.739Z,9.30
2023-09-28T10:39:53.137Z,8.77
2023-09-28T10:42:22.307Z,8.57
2023-09-28T10:44:50.529Z,9.43
2023-09-28T10:47:18.418Z,7.27
2023-09-28T10:49:46.374Z,10.23
2023-09-28T10:52:14.120Z,7.47
2023-09-28T10:54:43.221Z,6.70
2023-09-28T10:57:12.447Z,6.57
2023-09-28T10:59:42.341Z,8.23
2023-09-28T11:02:10.242Z,11.90
2023-09-28T11:04:50.957Z,8.33
2023-09-28T11:07:19.887Z,7.93
2023-09-28T11:09:47.674Z,7.30
2023-09-28T11:12:16.757Z,7.17
2023-09-28T11:14:44.636Z,7.50
2023-09-28T11:17:12.446Z,6.53
2023-09-28T11:19:40.272Z,8.80
2023-09-28T11:22:09.272Z,7.67
2023-09-28T11:24:37.062Z,6.10
2023-09-28T11:27:05.026Z,6.33
2023-09-28T11:29:36.140Z,6.57
2023-09-28T11:32:04.033Z,10.17
2023-09-28T11:34:32.017Z,8.77
2023-09-28T11:37:00.565Z,7.10
2023-09-28T11:39:28.750Z,7.00
2023-09-28T11:41:57.093Z,7.90
2023-09-28T11:44:26.389Z,6.03
2023-09-28T11:46:55.944Z,6.30
2023-09-28T11:49:24.754Z,6.17
2023-09-28T11:51:53.866Z,6.20
2023-09-28T11:54:22.276Z,6.03
2023-09-28T11:56:50.509Z,6.00
2023-09-28T11:59:19.204Z,5.33
2023-09-28T12:01:52.852Z,5.33
2023-09-28T12:04:22.082Z,6.60
2023-09-28T12:06:49.830Z,6.13
2023-09-28T12:09:20.552Z,5.13
2023-09-28T12:11:49.443Z,4.77
2023-09-28T12:14:17.939Z,4.60
2023-09-28T12:16:48.343Z,4.37
2023-09-28T12:19:17.500Z,5.28
2023-09-28T12:21:47.682Z,5.00
2023-09-28T12:24:16.722Z,4.82
2023-09-28T12:26:45.474Z,5.18
2023-09-28T12:29:13.792Z,6.47
2023-09-28T12:31:41.644Z,4.88
2023-09-28T12:34:09.379Z,4.53
2023-09-28T12:36:37.143Z,4.00
2023-09-28T12:39:11.291Z,5.13
2023-09-28T12:41:39.143Z,4.25
2023-09-28T12:44:07.369Z,4.60
2023-09-28T12:46:35.462Z,4.93
2023-09-28T12:49:03.169Z,5.18
2023-09-28T12:51:30.884Z,4.82
2023-09-28T12:53:58.577Z,3.95
2023-09-28T12:56:28.948Z,4.27
2023-09-28T12:58:57.204Z,4.17
2023-09-28T13:01:25.063Z,4.15
2023-09-28T13:03:53.387Z,4.22
2023-09-28T13:06:22.089Z,5.40
2023-09-28T13:08:49.887Z,4.05
2023-09-28T13:11:19.309Z,4.00
2023-09-28T13:13:48.644Z,3.53
2023-09-28T13:16:21.202Z,3.37
2023-09-28T13:18:49.026Z,3.65
2023-09-28T13:21:19.760Z,4.10
2023-09-28T13:23:50.125Z,3.65
2023-09-28T13:26:23.061Z,3.47
2023-09-28T13:28:51.992Z,3.67
2023-09-28T13:31:19.436Z,3.90
2023-09-28T13:33:46.896Z,3.95
2023-09-28T13:36:16.096Z,4.45
2023-09-28T13:38:44.109Z,4.25
2023-09-28T13:41:14.697Z,5.25
2023-09-28T13:43:44.198Z,3.83
2023-09-28T13:46:13.355Z,3.80
2023-09-28T13:48:40.791Z,3.53
2023-09-28T13:51:08.220Z,4.28
2023-09-28T13:53:35.903Z,3.72
2023-09-28T13:56:04.376Z,3.45
2023-09-28T13:58:32.461Z,3.28
2023-09-28T14:01:00.210Z,3.90
2023-09-28T14:03:30.716Z,4.45
2023-09-28T14:05:58.343Z,3.70
2023-09-28T14:08:26.248Z,3.60
2023-09-28T14:10:54.820Z,4.35
2023-09-28T14:13:22.799Z,3.65
2023-09-28T14:15:50.377Z,4.18
2023-09-28T14:18:17.955Z,3.78
2023-09-28T14:20:46.871Z,3.60
2023-09-28T14:23:14.382Z,3.45
2023-09-28T14:25:42.063Z,3.05
2023-09-28T14:28:09.523Z,3.60
2023-09-28T14:30:37.523Z,3.42
2023-09-28T14:33:05.223Z,3.42
2023-09-28T14:35:32.729Z,3.63
2023-09-28T14:38:01.685Z,3.67
2023-09-28T14:40:30.481Z,3.80
2023-09-28T14:42:57.954Z,3.55
2023-09-28T14:45:25.381Z,3.45
2023-09-28T14:47:52.934Z,4.45
2023-09-28T14:50:22.050Z,3.30
2023-09-28T14:52:49.694Z,4.10
2023-09-28T14:55:18.489Z,3.20
2023-09-28T14:57:46.003Z,3.17
2023-09-28T15:00:14.427Z,3.35
2023-09-28T15:02:42.315Z,3.08
2023-09-28T15:05:10.888Z,4.00
2023-09-28T15:07:38.608Z,4.00
2023-09-28T15:10:06.456Z,3.78
2023-09-28T15:12:35.278Z,3.58
2023-09-28T15:15:02.722Z,3.47
2023-09-28T15:17:30.364Z,3.60
2023-09-28T15:19:59.360Z,3.10
2023-09-28T15:22:26.866Z,3.20
2023-09-28T15:24:54.303Z,3.17
2023-09-28T15:27:22.079Z,3.13
2023-09-28T15:29:50.968Z,3.63
2023-09-28T15:32:18.644Z,2.80
2023-09-28T15:34:46.349Z,3.35
2023-09-28T15:37:18.864Z,3.20
2023-09-28T15:39:46.397Z,3.33
2023-09-28T15:42:14.133Z,2.90
2023-09-28T15:44:41.753Z,3.20
2023-09-28T15:47:10.570Z,3.75
2023-09-28T15:49:38.013Z,3.70
2023-09-28T15:52:06.157Z,3.65
2023-09-28T15:54:33.576Z,3.17
2023-09-28T15:57:01.804Z,5.13
2023-09-28T15:59:29.299Z,3.22
2023-09-28T16:01:56.810Z,3.88
2023-09-28T16:04:26.630Z,3.53
2023-09-28T16:06:56.105Z,4.10
2023-09-28T16:09:24.333Z,4.03
2023-09-28T16:11:51.745Z,4.47
2023-09-28T16:14:19.156Z,3.95
2023-09-28T16:16:46.937Z,4.70
2023-09-28T16:19:14.433Z,4.35
2023-09-28T16:21:43.431Z,4.10
2023-09-28T16:24:11.148Z,4.07
2023-09-28T16:26:38.671Z,4.43
2023-09-28T16:29:06.181Z,4.07
2023-09-28T16:31:33.656Z,4.60
2023-09-28T16:34:01.082Z,4.32
2023-09-28T16:36:28.492Z,4.35
2023-09-28T16:38:57.374Z,4.18
2023-09-28T16:41:25.061Z,4.65
2023-09-28T16:43:52.521Z,4.25
2023-09-28T16:46:20.473Z,6.00
2023-09-28T16:48:48.406Z,4.45
2023-09-28T16:51:15.975Z,6.35
2023-09-28T16:53:43.588Z,8.38
2023-09-28T16:56:12.478Z,5.28
2023-09-28T16:58:41.116Z,5.70
2023-09-28T17:01:08.596Z,6.45
2023-09-28T17:03:36.333Z,5.40
2023-09-28T17:06:04.063Z,6.47
2023-09-28T17:08:33.242Z,7.32
2023-09-28T17:11:00.724Z,5.63
2023-09-28T17:13:29.547Z,6.07
2023-09-28T17:15:56.958Z,6.10
2023-09-28T17:18:24.513Z,7.33
2023-09-28T17:20:52.057Z,6.60
2023-09-28T17:23:19.654Z,5.95
2023-09-28T17:25:47.190Z,5.67
2023-09-28T17:28:14.663Z,6.90
2023-09-28T17:30:45.872Z,6.23
2023-09-28T17:33:13.742Z,5.20
2023-09-28T17:35:41.341Z,6.27
2023-09-28T17:38:08.923Z,6.87
2023-09-28T17:40:36.410Z,6.10
2023-09-28T17:43:04.360Z,6.43
2023-09-28T17:45:33.616Z,6.13
2023-09-28T17:48:02.652Z,7.20
2023-09-28T17:50:30.688Z,7.20
2023-09-28T17:52:58.107Z,5.50
2023-09-28T17:55:25.575Z,5.70
2023-09-28T17:57:53.976Z,7.00
2023-09-28T18:00:21.501Z,20.13
2023-09-28T18:02:49.164Z,38.10
2023-09-28T18:05:18.081Z,13.67
2023-09-28T18:07:45.762Z,7.80
2023-09-28T18:10:15.499Z,7.83
2023-09-28T18:12:42.931Z,6.83
2023-09-28T18:15:10.836Z,6.90
2023-09-28T18:17:38.429Z,6.83
2023-09-28T18:20:06.428Z,6.73
2023-09-28T18:22:35.778Z,6.67
2023-09-28T18:25:03.208Z,6.90
2023-09-28T18:27:30.629Z,7.93
2023-09-28T18:29:58.843Z,6.33
2023-09-28T18:32:26.322Z,6.80
2023-09-28T18:34:53.783Z,6.53
2023-09-28T18:37:21.207Z,6.70
2023-09-28T18:39:50.831Z,6.77
2023-09-28T18:42:18.308Z,6.93
2023-09-28T18:44:46.069Z,7.17
2023-09-28T18:47:13.894Z,7.47
2023-09-28T18:49:41.751Z,8.10
2023-09-28T18:52:09.220Z,6.57
2023-09-28T18:54:37.032Z,7.20
2023-09-28T18:57:07.070Z,6.17
2023-09-28T18:59:34.673Z,6.80
2023-09-28T19:02:02.482Z,7.37
2023-09-28T19:04:31.692Z,6.97
2023-09-28T19:07:00.586Z,6.67
2023-09-28T19:09:28.168Z,7.87
2023-09-28T19:11:55.718Z,7.03
2023-09-28T19:14:24.672Z,6.83
2023-09-28T19:16:53.491Z,6.50
2023-09-28T19:19:22.642Z,7.00
2023-09-28T19:21:50.070Z,7.10
2023-09-28T19:24:17.543Z,6.17
2023-09-28T19:26:45.080Z,8.30
2023-09-28T19:29:12.677Z,7.07
2023-09-28T19:31:42.698Z,6.90
2023-09-28T19:34:10.140Z,6.97
2023-09-28T19:36:37.622Z,6.77
2023-09-28T19:39:05.169Z,7.27
2023-09-28T19:41:33.954Z,6.47
2023-09-28T19:44:01.806Z,6.63
2023-09-28T19:46:29.359Z,8.40
2023-09-28T19:48:59.719Z,7.33
2023-09-28T19:51:27.879Z,6.20
2023-09-28T19:53:56.082Z,6.27
2023-09-28T19:56:27.074Z,6.70
2023-09-28T19:58:54.696Z,6.20
2023-09-28T20:01:22.719Z,7.70
2023-09-28T20:03:50.556Z,6.87
2023-09-28T20:06:19.488Z,6.37
2023-09-28T20:08:46.976Z,5.87
2023-09-28T20:11:14.539Z,7.57
2023-09-28T20:13:42.427Z,8.53
2023-09-28T20:16:09.929Z,7.50
2023-09-28T20:18:37.415Z,6.50
2023-09-28T20:21:05.252Z,8.40
2023-09-28T20:23:34.776Z,7.90
2023-09-28T20:26:02.274Z,9.20
2023-09-28T20:28:29.713Z,10.53
2023-09-28T20:30:59.596Z,9.20
2023-09-28T20:33:27.214Z,9.03
2023-09-28T20:35:54.723Z,8.93
2023-09-28T20:38:22.212Z,7.90
2023-09-28T20:40:51.144Z,7.73
2023-09-28T20:43:18.574Z,8.33
2023-09-28T20:45:46.120Z,8.60
2023-09-28T20:48:13.875Z,8.13
2023-09-28T20:50:42.545Z,8.13
2023-09-28T20:53:11.452Z,9.67
2023-09-28T20:55:38.888Z,8.10
2023-09-28T20:58:07.705Z,8.03
2023-09-28T21:00:36.006Z,8.37
2023-09-28T21:03:04.029Z,7.70
2023-09-28T21:05:31.608Z,7.97
2023-09-28T21:07:59.111Z,8.23
2023-09-28T21:10:27.038Z,7.10
2023-09-28T21:12:54.469Z,8.50
2023-09-28T21:15:23.364Z,7.37
2023-09-28T21:17:50.909Z,7.33
2023-09-28T21:20:19.672Z,6.40
2023-09-28T21:22:47.407Z,6.60
2023-09-28T21:25:16.083Z,6.53
2023-09-28T21:27:43.524Z,6.87
2023-09-28T21:30:11.543Z,7.07
2023-09-28T21:32:40.414Z,8.93
2023-09-28T21:35:08.522Z,7.37
2023-09-28T21:37:35.985Z,7.60
2023-09-28T21:40:03.706Z,8.13
2023-09-28T21:42:31.202Z,9.97
2023-09-28T21:45:04.881Z,8.80
2023-09-28T21:47:32.347Z,9.33
2023-09-28T21:50:01.806Z,10.50
2023-09-28T21:52:29.260Z,9.67
2023-09-28T21:54:56.681Z,9.43
2023-09-28T21:57:24.109Z,8.27
2023-09-28T21:59:51.549Z,8.37
2023-09-28T22:02:19.108Z,8.60
2023-09-28T22:04:46.561Z,10.20
2023-09-28T22:07:15.304Z,8.67
2023-09-28T22:09:42.714Z,8.70
2023-09-28T22:12:11.162Z,9.10
2023-09-28T22:14:41.522Z,9.13
2023-09-28T22:17:09.280Z,8.73
2023-09-28T22:19:38.081Z,8.63
2023-09-28T22:22:05.757Z,8.60
2023-09-28T22:24:34.554Z,8.47
2023-09-28T22:27:02.058Z,7.90
2023-09-28T22:29:29.574Z,7.27
2023-09-28T22:31:56.997Z,8.77
2023-09-28T22:34:24.423Z,8.67
2023-09-28T22:36:51.883Z,8.70
2023-09-28T22:39:19.777Z,8.23
2023-09-28T22:41:48.599Z,8.67
2023-09-28T22:44:16.951Z,8.53
2023-09-28T22:46:45.286Z,8.50
2023-09-28T22:49:12.720Z,8.37
2023-09-28T22:51:40.150Z,8.13
2023-09-28T22:54:07.740Z,8.50
2023-09-28T22:56:35.250Z,8.37
2023-09-28T22:59:05.203Z,8.33
2023-09-28T23:01:32.672Z,8.13
2023-09-28T23:04:00.208Z,8.57
2023-09-28T23:06:28.168Z,8.83
2023-09-28T23:08:56.536Z,8.40
2023-09-28T23:11:24.234Z,8.53
2023-09-28T23:13:51.725Z,8.50
2023-09-28T23:16:20.641Z,8.47
2023-09-28T23:18:49.458Z,8.83
2023-09-28T23:21:17.743Z,9.80
2023-09-28T23:23:45.254Z,10.60
2023-09-28T23:26:12.784Z,9.47
2023-09-28T23:28:42.575Z,9.03
2023-09-28T23:31:12.480Z,9.47
2023-09-28T23:33:41.406Z,8.87
2023-09-28T23:36:11.854Z,8.70
2023-09-28T23:38:39.541Z,10.33
2023-09-28T23:41:07.088Z,8.07
2023-09-28T23:43:35.412Z,7.87
2023-09-28T23:46:04.028Z,7.33
2023-09-28T23:48:33.171Z,7.27
2023-09-28T23:51:02.239Z,7.87
2023-09-28T23:53:30.106Z,7.70
2023-09-28T23:55:57.607Z,7.90
2023-09-28T23:58:25.032Z,7.23
